Flinterbrise — PHCA — position and weather

sailwx.info

Track history (hours):
 
Tides and Currents Weather Stations Pressure Air Temp Water Temp Dewpoint Dewpoint Depression Visibility Wind Speed Wind Dir Waves Ship Positions

Flinterbrise

Last reported at 2015-Jul-06 15:30 UTC. Time now 2015-Jul-06 15:38 UTC.
Position N 51°05' E 004°20'.

Length 83 m; draft 5.1 m.

Type: Cargo ship. MMSI: 246044000.

Date/timePositionNaut miles runAvg speedWind from/ knotsBaromVisibWave heightAir tempDewpointWater temp
2015-Jul-06 15:30N 51°05' E 004°20'0 0.0
2015-Jul-06 03:22N 51°05' E 004°20'0 0.0
2015-Jul-05 19:25N 51°05' E 004°20'2 1.8
2015-Jul-05 18:33N 51°06' E 004°18'3 3.1
2015-Jul-05 17:34N 51°09' E 004°20'6 6.0
2015-Jul-05 16:34N 51°15' E 004°19'9 8.5
2015-Jul-05 15:33N 51°23' E 004°13'7 7.4
2015-Jul-05 14:33N 51°25' E 004°02'9 9.1
2015-Jul-05 13:33N 51°21' E 003°49'1010.3
2015-Jul-05 12:34N 51°25' E 003°34'9 9.4
2015-Jul-05 11:33N 51°24' E 003°19'10 8.8
2015-Jul-05 10:24N 51°24' E 003°03'6 7.6
2015-Jul-05 09:34N 51°22' E 002°53'8 7.7
2015-Jul-05 08:33N 51°22' E 002°41'7 7.1
2015-Jul-05 07:34N 51°22' E 002°30'8 7.5
2015-Jul-05 06:33N 51°19' E 002°18'8 7.8
2015-Jul-05 05:33N 51°21' E 002°06'6 6.4
2015-Jul-05 04:34N 51°26' E 002°00'6 6.2
2015-Jul-05 03:33N 51°32' E 002°03'6 6.3
2015-Jul-05 02:32N 51°38' E 002°06'7 7.2
2015-Jul-05 01:33N 51°44' E 002°12'8 8.0
2015-Jul-05 00:34N 51°52' E 002°15'10 9.4
2015-Jul-04 23:33N 52°02' E 002°13'3010.2
2015-Jul-04 20:34N 52°32' E 002°04'10 9.7
2015-Jul-04 19:34N 52°41' E 002°00'8 8.4
2015-Jul-04 18:34N 52°47' E 001°51'7 7.2
2015-Jul-04 17:33N 52°52' E 001°42'6 6.0
2015-Jul-04 16:34N 52°55' E 001°33'6 5.7
2015-Jul-04 15:34N 52°57' E 001°24'6 5.7
2015-Jul-04 14:33N 52°59' E 001°16'  
2015-Jul-01 20:33N 53°25' E 000°27'8 8.3
2015-Jul-01 19:32N 53°31' E 000°17'9 9.0
2015-Jul-01 18:33N 53°35' E 000°03'1010.0
2015-Jul-01 17:33N 53°39' W 000°11'7 6.7
2015-Jul-01 16:34N 53°45' W 000°18'0 0.3
2015-Jul-01 15:33N 53°45' W 000°17'0 0.0
2015-Jul-01 14:32N 53°45' W 000°17'0 0.0
2015-Jul-01 13:32N 53°45' W 000°17'0 0.0
2015-Jul-01 12:32N 53°45' W 000°17'0 0.0
2015-Jul-01 11:33N 53°45' W 000°17'0 0.0
2015-Jul-01 10:33N 53°45' W 000°17'0 0.0
2015-Jul-01 09:33N 53°45' W 000°17'0 0.0
2015-Jul-01 08:30N 53°45' W 000°17'0 0.0
2015-Jul-01 07:33N 53°45' W 000°17'0 0.0
2015-Jul-01 06:33N 53°45' W 000°17'0 0.0
2015-Jul-01 05:32N 53°45' W 000°17'0 0.0
2015-Jul-01 04:32N 53°45' W 000°17'0 0.0
2015-Jul-01 03:33N 53°45' W 000°17'0 0.0
2015-Jul-01 02:33N 53°45' W 000°17'0 0.0
2015-Jul-01 01:33N 53°45' W 000°17'0 0.0
2015-Jul-01 00:33N 53°45' W 000°17'0 0.0
2015-Jun-30 23:32N 53°45' W 000°17'0 0.0
2015-Jun-30 22:33N 53°45' W 000°17'0 0.0
2015-Jun-30 21:33N 53°45' W 000°17'0 0.0
2015-Jun-30 20:33N 53°45' W 000°17'0 0.0
2015-Jun-30 19:33N 53°45' W 000°17'0 0.0
2015-Jun-30 18:33N 53°45' W 000°17'0 0.0
2015-Jun-30 17:33N 53°45' W 000°17'0 0.0
2015-Jun-30 16:33N 53°45' W 000°17'0 0.0
2015-Jun-30 15:33N 53°45' W 000°17'0 0.0
2015-Jun-30 14:33N 53°45' W 000°17'0 0.0
2015-Jun-30 13:33N 53°45' W 000°17'0 0.0
2015-Jun-30 12:33N 53°45' W 000°17'0 0.0
2015-Jun-30 11:33N 53°45' W 000°17'0 0.0
2015-Jun-30 10:33N 53°45' W 000°17'0 0.0
2015-Jun-30 09:32N 53°45' W 000°17'0 0.0
2015-Jun-30 08:33N 53°45' W 000°17'0 0.0
2015-Jun-30 07:33N 53°45' W 000°17'0 0.0
2015-Jun-30 06:33N 53°45' W 000°17'0 0.0
2015-Jun-30 05:33N 53°45' W 000°17'0 0.0
2015-Jun-30 04:33N 53°45' W 000°17'2 1.8
2015-Jun-30 03:33N 53°43' W 000°15'1111.2
2015-Jun-30 02:34N 53°36' W 000°01'10 9.5
2015-Jun-30 01:33N 53°33' E 000°14'7 7.3
2015-Jun-30 00:33N 53°39' E 000°22'5 5.4
2015-Jun-29 23:33N 53°41' E 000°31'153 9.6
2015-Jun-29 07:31N 54°04' E 004°48'9 9.8
2015-Jun-29 06:33N 54°05' E 005°04'9 9.1
2015-Jun-29 05:34N 54°06' E 005°19'9 8.5
2015-Jun-29 04:29N 54°08' E 005°34'8 8.4
2015-Jun-29 03:31N 54°09' E 005°48'61 9.5
2015-Jun-28 21:07N 54°12' E 007°32'5 8.3
2015-Jun-28 20:33N 54°10' E 007°40'8 8.0
2015-Jun-28 19:31N 54°06' E 007°52'7 7.7
2015-Jun-28 18:33N 54°02' E 008°03'7 7.5
2015-Jun-28 17:33N 54°01' E 008°16'15 7.6
2015-Jun-28 15:33N 53°56' E 008°40'10 9.9
2015-Jun-28 14:33N 53°51' E 008°54'9 9.1
2015-Jun-28 13:33N 53°54' E 009°09'1 0.7
2015-Jun-28 12:33N 53°54' E 009°10'9 8.4
2015-Jun-28 11:32N 54°01' E 009°18'17 7.4
2015-Jun-28 09:18N 54°14' E 009°36'2 2.2
2015-Jun-28 08:30N 54°15' E 009°37'5 5.2
2015-Jun-28 07:34N 54°19' E 009°43'5 5.3
2015-Jun-28 06:34N 54°22' E 009°50'8 8.3
2015-Jun-28 05:33N 54°22' E 010°05'3 2.6
2015-Jun-28 04:34N 54°22' E 010°09'1 0.8
2015-Jun-28 03:34N 54°22' E 010°10'7 7.0
2015-Jun-28 02:34N 54°29' E 010°16'9 8.7
2015-Jun-28 01:34N 54°33' E 010°29'18 8.6
2015-Jun-27 23:26N 54°36' E 011°00'7 8.1
2015-Jun-27 22:33N 54°35' E 011°12'8 8.0
2015-Jun-27 21:34N 54°32' E 011°25'8 8.2
2015-Jun-27 20:34N 54°24' E 011°26'8 8.3
2015-Jun-27 19:34N 54°15' E 011°27'10 8.1
2015-Jun-27 18:17N 54°05' E 011°27'5 7.3
2015-Jun-27 17:34N 54°01' E 011°21'7 7.4
2015-Jun-27 16:33N 53°55' E 011°26'1 0.8
2015-Jun-27 15:31N 53°54' E 011°28'0 0.0
2015-Jun-27 14:31N 53°54' E 011°28'0 0.0
2015-Jun-27 13:31N 53°54' E 011°28'0 0.0
2015-Jun-27 12:31N 53°54' E 011°28'0 0.0
2015-Jun-27 11:31N 53°54' E 011°28'0 0.0
2015-Jun-27 01:07N 53°54' E 011°28'0 0.0
2015-Jun-27 00:31N 53°54' E 011°28'0 0.0
2015-Jun-26 23:31N 53°54' E 011°28'0 0.0
2015-Jun-26 22:31N 53°54' E 011°28'0 0.0
2015-Jun-26 21:28N 53°54' E 011°28'0 0.0
2015-Jun-26 20:31N 53°54' E 011°28'0 0.0
2015-Jun-26 19:31N 53°54' E 011°28'0 0.0
2015-Jun-26 18:31N 53°54' E 011°28'0 0.0
2015-Jun-26 17:28N 53°54' E 011°28'0 0.0
2015-Jun-26 16:31N 53°54' E 011°28'  
Track history (hours):
 
Tides and Currents Weather Stations Pressure Air Temp Water Temp Dewpoint Dewpoint Depression Visibility Wind Speed Wind Dir Waves Ship Positions

Flinterbrise

Last reported at 2015-Jul-06 15:30 UTC. Time now 2015-Jul-06 15:38 UTC.
Position N 51°05' E 004°20'.

Length 83 m; draft 5.1 m.

Type: Cargo ship. MMSI: 246044000.

Date/timePositionNaut miles runAvg speedWind from/ knotsBaromVisibWave heightAir tempDewpointWater temp
2015-Jul-06 15:30N 51°05' E 004°20'0 0.0
2015-Jul-06 03:22N 51°05' E 004°20'0 0.0
2015-Jul-05 19:25N 51°05' E 004°20'2 1.8
2015-Jul-05 18:33N 51°06' E 004°18'3 3.1
2015-Jul-05 17:34N 51°09' E 004°20'6 6.0
2015-Jul-05 16:34N 51°15' E 004°19'9 8.5
2015-Jul-05 15:33N 51°23' E 004°13'7 7.4
2015-Jul-05 14:33N 51°25' E 004°02'9 9.1
2015-Jul-05 13:33N 51°21' E 003°49'1010.3
2015-Jul-05 12:34N 51°25' E 003°34'9 9.4
2015-Jul-05 11:33N 51°24' E 003°19'10 8.8
2015-Jul-05 10:24N 51°24' E 003°03'6 7.6
2015-Jul-05 09:34N 51°22' E 002°53'8 7.7
2015-Jul-05 08:33N 51°22' E 002°41'7 7.1
2015-Jul-05 07:34N 51°22' E 002°30'8 7.5
2015-Jul-05 06:33N 51°19' E 002°18'8 7.8
2015-Jul-05 05:33N 51°21' E 002°06'6 6.4
2015-Jul-05 04:34N 51°26' E 002°00'6 6.2
2015-Jul-05 03:33N 51°32' E 002°03'6 6.3
2015-Jul-05 02:32N 51°38' E 002°06'7 7.2
2015-Jul-05 01:33N 51°44' E 002°12'8 8.0
2015-Jul-05 00:34N 51°52' E 002°15'10 9.4
2015-Jul-04 23:33N 52°02' E 002°13'3010.2
2015-Jul-04 20:34N 52°32' E 002°04'10 9.7
2015-Jul-04 19:34N 52°41' E 002°00'8 8.4
2015-Jul-04 18:34N 52°47' E 001°51'7 7.2
2015-Jul-04 17:33N 52°52' E 001°42'6 6.0
2015-Jul-04 16:34N 52°55' E 001°33'6 5.7
2015-Jul-04 15:34N 52°57' E 001°24'6 5.7
2015-Jul-04 14:33N 52°59' E 001°16'  
2015-Jul-01 20:33N 53°25' E 000°27'8 8.3
2015-Jul-01 19:32N 53°31' E 000°17'9 9.0
2015-Jul-01 18:33N 53°35' E 000°03'1010.0
2015-Jul-01 17:33N 53°39' W 000°11'7 6.7
2015-Jul-01 16:34N 53°45' W 000°18'0 0.3
2015-Jul-01 15:33N 53°45' W 000°17'0 0.0
2015-Jul-01 14:32N 53°45' W 000°17'0 0.0
2015-Jul-01 13:32N 53°45' W 000°17'0 0.0
2015-Jul-01 12:32N 53°45' W 000°17'0 0.0
2015-Jul-01 11:33N 53°45' W 000°17'0 0.0
2015-Jul-01 10:33N 53°45' W 000°17'0 0.0
2015-Jul-01 09:33N 53°45' W 000°17'0 0.0
2015-Jul-01 08:30N 53°45' W 000°17'0 0.0
2015-Jul-01 07:33N 53°45' W 000°17'0 0.0
2015-Jul-01 06:33N 53°45' W 000°17'0 0.0
2015-Jul-01 05:32N 53°45' W 000°17'0 0.0
2015-Jul-01 04:32N 53°45' W 000°17'0 0.0
2015-Jul-01 03:33N 53°45' W 000°17'0 0.0
2015-Jul-01 02:33N 53°45' W 000°17'0 0.0
2015-Jul-01 01:33N 53°45' W 000°17'0 0.0
2015-Jul-01 00:33N 53°45' W 000°17'0 0.0
2015-Jun-30 23:32N 53°45' W 000°17'0 0.0
2015-Jun-30 22:33N 53°45' W 000°17'0 0.0
2015-Jun-30 21:33N 53°45' W 000°17'0 0.0
2015-Jun-30 20:33N 53°45' W 000°17'0 0.0
2015-Jun-30 19:33N 53°45' W 000°17'0 0.0
2015-Jun-30 18:33N 53°45' W 000°17'0 0.0
2015-Jun-30 17:33N 53°45' W 000°17'0 0.0
2015-Jun-30 16:33N 53°45' W 000°17'0 0.0
2015-Jun-30 15:33N 53°45' W 000°17'0 0.0
2015-Jun-30 14:33N 53°45' W 000°17'0 0.0
2015-Jun-30 13:33N 53°45' W 000°17'0 0.0
2015-Jun-30 12:33N 53°45' W 000°17'0 0.0
2015-Jun-30 11:33N 53°45' W 000°17'0 0.0
2015-Jun-30 10:33N 53°45' W 000°17'0 0.0
2015-Jun-30 09:32N 53°45' W 000°17'0 0.0
2015-Jun-30 08:33N 53°45' W 000°17'0 0.0
2015-Jun-30 07:33N 53°45' W 000°17'0 0.0
2015-Jun-30 06:33N 53°45' W 000°17'0 0.0
2015-Jun-30 05:33N 53°45' W 000°17'0 0.0
2015-Jun-30 04:33N 53°45' W 000°17'2 1.8
2015-Jun-30 03:33N 53°43' W 000°15'1111.2
2015-Jun-30 02:34N 53°36' W 000°01'10 9.5
2015-Jun-30 01:33N 53°33' E 000°14'7 7.3
2015-Jun-30 00:33N 53°39' E 000°22'5 5.4
2015-Jun-29 23:33N 53°41' E 000°31'153 9.6
2015-Jun-29 07:31N 54°04' E 004°48'9 9.8
2015-Jun-29 06:33N 54°05' E 005°04'9 9.1
2015-Jun-29 05:34N 54°06' E 005°19'9 8.5
2015-Jun-29 04:29N 54°08' E 005°34'8 8.4
2015-Jun-29 03:31N 54°09' E 005°48'61 9.5
2015-Jun-28 21:07N 54°12' E 007°32'5 8.3
2015-Jun-28 20:33N 54°10' E 007°40'8 8.0
2015-Jun-28 19:31N 54°06' E 007°52'7 7.7
2015-Jun-28 18:33N 54°02' E 008°03'7 7.5
2015-Jun-28 17:33N 54°01' E 008°16'15 7.6
2015-Jun-28 15:33N 53°56' E 008°40'10 9.9
2015-Jun-28 14:33N 53°51' E 008°54'9 9.1
2015-Jun-28 13:33N 53°54' E 009°09'1 0.7
2015-Jun-28 12:33N 53°54' E 009°10'9 8.4
2015-Jun-28 11:32N 54°01' E 009°18'17 7.4
2015-Jun-28 09:18N 54°14' E 009°36'2 2.2
2015-Jun-28 08:30N 54°15' E 009°37'5 5.2
2015-Jun-28 07:34N 54°19' E 009°43'5 5.3
2015-Jun-28 06:34N 54°22' E 009°50'8 8.3
2015-Jun-28 05:33N 54°22' E 010°05'3 2.6
2015-Jun-28 04:34N 54°22' E 010°09'1 0.8
2015-Jun-28 03:34N 54°22' E 010°10'7 7.0
2015-Jun-28 02:34N 54°29' E 010°16'9 8.7
2015-Jun-28 01:34N 54°33' E 010°29'18 8.6
2015-Jun-27 23:26N 54°36' E 011°00'7 8.1
2015-Jun-27 22:33N 54°35' E 011°12'8 8.0
2015-Jun-27 21:34N 54°32' E 011°25'8 8.2
2015-Jun-27 20:34N 54°24' E 011°26'8 8.3
2015-Jun-27 19:34N 54°15' E 011°27'10 8.1
2015-Jun-27 18:17N 54°05' E 011°27'5 7.3
2015-Jun-27 17:34N 54°01' E 011°21'7 7.4
2015-Jun-27 16:33N 53°55' E 011°26'1 0.8
2015-Jun-27 15:31N 53°54' E 011°28'0 0.0
2015-Jun-27 14:31N 53°54' E 011°28'0 0.0
2015-Jun-27 13:31N 53°54' E 011°28'0 0.0
2015-Jun-27 12:31N 53°54' E 011°28'0 0.0
2015-Jun-27 11:31N 53°54' E 011°28'0 0.0
2015-Jun-27 01:07N 53°54' E 011°28'0 0.0
2015-Jun-27 00:31N 53°54' E 011°28'0 0.0
2015-Jun-26 23:31N 53°54' E 011°28'0 0.0
2015-Jun-26 22:31N 53°54' E 011°28'0 0.0
2015-Jun-26 21:28N 53°54' E 011°28'0 0.0
2015-Jun-26 20:31N 53°54' E 011°28'0 0.0
2015-Jun-26 19:31N 53°54' E 011°28'0 0.0
2015-Jun-26 18:31N 53°54' E 011°28'0 0.0
2015-Jun-26 17:28N 53°54' E 011°28'0 0.0
2015-Jun-26 16:31N 53°54' E 011°28'  

Dump ship's entire track history